This is the latest recevied weather packets stored in our database for station/object EA1AWV-13. If no packets are shown the sender has not sent any weather packets the latest 10 day(s).
| Time | Temp. | Humidity | Pressure | Rain* | Wind** | Luminosity | Snow |
|---|---|---|---|---|---|---|---|
| 1787493281 | 33.33° C | 60% | 1005.6 hPa | - | - | - | - |
| 1787492681 | 32.78° C | 62% | 1005.8 hPa | - | - | - | - |
| 1787492081 | 32.22° C | 66% | 1006.2 hPa | - | - | - | - |
| 1787491481 | 32.22° C | 66% | 1006.2 hPa | - | - | - | - |
| 1787490881 | 32.78° C | 66% | 1006.1 hPa | - | - | - | - |
| 1787490281 | 32.22° C | 63% | 1006.3 hPa | - | - | - | - |
| 1787489681 | 32.78° C | 73% | 1006.3 hPa | - | - | - | - |
| 1787489081 | 32.22° C | 74% | 1006.5 hPa | - | - | - | - |
| 1787488481 | 31.67° C | 78% | 1006.6 hPa | - | - | - | - |
| 1787487881 | 32.78° C | 77% | 1006.5 hPa | - | - | - | - |
| 1787487281 | 31.67° C | 78% | 1006.8 hPa | - | - | - | - |
| 1787486681 | 31.67° C | 80% | 1006.9 hPa | - | - | - | - |
| 1787486081 | 31.67° C | 82% | 1007 hPa | - | - | - | - |
| 1787485481 | 30.56° C | 81% | 1007.1 hPa | - | - | - | - |
| 1787484881 | 31.67° C | 84% | 1007 hPa | - | - | - | - |
| 1787484281 | 31.67° C | 87% | 1007.3 hPa | - | - | - | - |
| 1787483681 | 31.11° C | 89% | 1007.4 hPa | - | - | - | - |
| 1787483081 | 30.56° C | 92% | 1007.7 hPa | - | - | - | - |
| 1787482481 | 29.44° C | 94% | 1008 hPa | - | - | - | - |
| 1787481881 | 30° C | 97% | 1008 hPa | - | - | - | - |
| 1787481281 | 30° C | 10% | - | - | - | - | - |
| 1787480681 | 30° C | 10% | - | - | - | - | - |
| 1787480081 | 30° C | 10% | - | - | - | - | - |
| 1787479481 | 30° C | 10% | - | - | - | - | - |
| 1787478881 | 29.44° C | 10% | - | - | - | - | - |
* Rain since midnight (hover to see other rain measurements)
** Current wind speed in m/s (hover to see current wind gust speed)